Vancouver International Airport
CYVR : now visible

Airfield :











YOU CAN JOIN US ON...

 
LOGIN :

Register | Disclaimer

   EN    FR    IT 

 









Legend :    VFR   Marginal VFR   IFR   Intensive IFR   Very Intensive IFR
Visi :
Ceiling :
>= 8 km
>= 3000ft
5 to 8 km
1000 to 3000 ft
1500m to 5 km
500 to 1000 ft
800 to 1500m
200 to 500 ft
< 800m
< 200 ft
Symbols :   Thunderstorms  Fog  Heavy snow  Heavy precipitations  Wind > 20 kt






- Airport Elevation : 14 ft
- IATA code : YVR


CYVR - Vancouver International

CURRENT METAR :
  • 071500Z 00000KT 10SM SCT120 SCT210 BKN230 12/12 A3020 RMK AC3CI1CS3 SLP229

EXPIRED METARs :
  • 071400Z 21003KT 170V230 10SM FEW120 FEW210 SCT230 13/13 A3019 RMK AC2CI1CS2 CI TR SLP225
  • 071300Z 09004KT 10SM BCFG FEW110 FEW140 SCT220 12/12 A3017 RMK AC1AC1CS3 AC TR AC TR VIS NE - SE 3 SLP220

TAF TAF CYVR
Valid from the 07 at 15:00 until the 08 at 18:00 UTC


071440Z 0715/0818 08005KT P6SM FEW150 SCT220
BECMG 0716/0718 28006KT
FM080600 10005KT P6SM SKC
PROB30 0810/0816 2SM BR
BECMG 0816/0818 28008KT RMK NXT FCST BY 071800Z
CZVR FIR / North America



MET'MAP, your aeronautical weather chart ! - Copyright ORBIFLY December 2007 - Disclaimer

ORBIFLY MET'MAP TEAM :

Programming & Development : Alexandra Zaïnal
Original concept : Baudouin d'Aumeries
Technical & hardware support : Manuel Goepfert
Assistance : Marc-Olivier Méhu




SOURCES & CREDITS :

   NOAA       Earth
Advisory